createdAt,value
2019-04-26T00:01:18.830Z,99.90
2019-04-26T00:03:49.141Z,99.90
2019-04-26T00:06:19.935Z,99.90
2019-04-26T00:08:54.504Z,99.90
2019-04-26T00:11:41.955Z,99.90
2019-04-26T00:14:32.579Z,99.90
2019-04-26T00:17:06.529Z,99.90
2019-04-26T00:19:36.653Z,99.90
2019-04-26T00:22:06.667Z,99.90
2019-04-26T00:24:37.050Z,99.90
2019-04-26T00:27:07.746Z,99.90
2019-04-26T00:29:37.699Z,99.90
2019-04-26T00:32:08.044Z,99.90
2019-04-26T00:34:37.870Z,99.90
2019-04-26T00:37:08.946Z,99.90
2019-04-26T00:39:39.148Z,99.90
2019-04-26T00:42:09.520Z,99.90
2019-04-26T00:44:40.097Z,99.90
2019-04-26T00:47:13.651Z,99.90
2019-04-26T00:49:44.225Z,99.90
2019-04-26T00:52:15.719Z,99.90
2019-04-26T00:54:46.395Z,99.90
2019-04-26T00:57:35.835Z,99.90
2019-04-26T01:00:24.606Z,99.90
2019-04-26T01:09:13.729Z,99.90
2019-04-26T01:18:11.122Z,99.90
2019-04-26T01:20:43.030Z,99.90
2019-04-26T01:23:17.417Z,99.90
2019-04-26T01:26:07.098Z,99.90
2019-04-26T01:28:48.044Z,99.90
2019-04-26T01:31:29.791Z,99.90
2019-04-26T01:34:11.371Z,99.90
2019-04-26T01:36:52.660Z,99.90
2019-04-26T01:39:35.390Z,99.90
2019-04-26T01:42:32.759Z,99.90
2019-04-26T01:45:13.681Z,99.90
2019-04-26T01:47:44.537Z,99.90
2019-04-26T01:50:15.190Z,99.90
2019-04-26T01:52:46.882Z,99.90
2019-04-26T01:55:17.678Z,99.90
2019-04-26T01:58:07.314Z,99.90
2019-04-26T02:00:53.844Z,99.90
2019-04-26T02:03:27.762Z,99.90
2019-04-26T02:05:57.853Z,99.90
2019-04-26T02:11:46.119Z,99.90
2019-04-26T02:14:35.174Z,99.90
2019-04-26T02:24:14.957Z,99.90
2019-04-26T02:33:15.307Z,99.90
2019-04-26T02:36:18.303Z,99.90
2019-04-26T02:39:14.953Z,99.90
2019-04-26T02:42:24.201Z,99.90
2019-04-26T02:48:57.111Z,99.90
2019-04-26T02:51:38.551Z,99.90
2019-04-26T02:54:20.696Z,99.90
2019-04-26T02:57:02.061Z,99.90
2019-04-26T02:59:43.614Z,99.90
2019-04-26T03:02:24.945Z,99.90
2019-04-26T03:05:06.713Z,99.90
2019-04-26T03:07:48.383Z,99.90
2019-04-26T03:10:31.873Z,99.90
2019-04-26T03:16:39.272Z,99.90
2019-04-26T03:22:35.701Z,99.90
2019-04-26T03:25:17.655Z,99.90
2019-04-26T03:27:59.427Z,99.90
2019-04-26T03:30:48.652Z,99.90
2019-04-26T03:33:23.090Z,99.90
2019-04-26T03:36:23.845Z,99.90
2019-04-26T03:39:10.240Z,99.90
2019-04-26T03:42:10.393Z,99.90
2019-04-26T03:44:51.389Z,99.90
2019-04-26T03:47:34.215Z,99.90
2019-04-26T03:50:16.127Z,99.90
2019-04-26T03:52:57.432Z,99.90
2019-04-26T03:55:43.266Z,99.90
2019-04-26T03:58:25.086Z,99.90
2019-04-26T04:01:09.252Z,99.90
2019-04-26T04:04:18.764Z,99.90
2019-04-26T04:07:36.974Z,99.90
2019-04-26T04:14:05.844Z,99.90
2019-04-26T04:17:32.405Z,99.90
2019-04-26T04:24:02.361Z,99.90
2019-04-26T04:27:10.072Z,99.90
2019-04-26T04:30:17.780Z,99.90
2019-04-26T04:33:25.440Z,99.90
2019-04-26T04:39:59.502Z,99.90
2019-04-26T04:53:23.142Z,99.90
2019-04-26T05:00:01.266Z,99.90
2019-04-26T05:13:31.072Z,99.90
2019-04-26T05:16:40.298Z,99.90
2019-04-26T05:19:48.531Z,99.90
2019-04-26T05:33:16.577Z,99.90
2019-04-26T05:36:24.218Z,99.90
2019-04-26T05:39:32.071Z,99.90
2019-04-26T05:46:30.301Z,99.90
2019-04-26T05:49:57.946Z,99.90
2019-04-26T05:53:06.779Z,99.90
2019-04-26T05:59:50.411Z,99.90
2019-04-26T06:09:39.428Z,99.90
2019-04-26T06:12:58.709Z,99.90
2019-04-26T06:26:52.768Z,99.90
2019-04-26T06:30:01.177Z,99.90
2019-04-26T06:33:10.378Z,99.90
2019-04-26T06:36:20.441Z,99.90
2019-04-26T06:42:52.282Z,99.90
2019-04-26T06:46:18.709Z,99.90
2019-04-26T06:52:49.655Z,99.90
2019-04-26T06:59:35.827Z,99.90
2019-04-26T07:02:22.268Z,99.90
2019-04-26T07:12:37.277Z,99.90
2019-04-26T07:15:44.919Z,99.90
2019-04-26T07:18:52.738Z,99.90
2019-04-26T07:22:19.197Z,99.90
2019-04-26T07:25:27.884Z,99.90
2019-04-26T07:28:46.156Z,99.90
2019-04-26T07:32:05.767Z,99.90
2019-04-26T07:35:15.256Z,99.90
2019-04-26T07:38:24.564Z,99.90
2019-04-26T07:44:43.670Z,99.90
2019-04-26T07:47:53.546Z,99.90
2019-04-26T07:51:02.964Z,99.90
2019-04-26T07:54:13.868Z,99.90
2019-04-26T07:57:25.553Z,99.90
2019-04-26T08:00:44.727Z,99.90
2019-04-26T08:03:27.612Z,99.90
2019-04-26T08:06:22.835Z,99.90
2019-04-26T08:08:55.959Z,99.90
2019-04-26T08:11:51.310Z,99.90
2019-04-26T08:15:13.462Z,99.90
2019-04-26T08:18:23.825Z,99.90
2019-04-26T08:21:33.534Z,99.90
2019-04-26T08:27:40.061Z,99.90
2019-04-26T08:30:50.295Z,99.90
2019-04-26T08:33:27.280Z,99.90
2019-04-26T08:36:00.346Z,99.90
2019-04-26T08:38:32.435Z,99.90
2019-04-26T08:41:04.945Z,99.90
2019-04-26T08:43:55.909Z,99.90
2019-04-26T08:46:47.071Z,99.90
2019-04-26T08:49:39.065Z,99.90
2019-04-26T08:52:14.524Z,99.90
2019-04-26T08:54:56.633Z,99.90
2019-04-26T08:57:31.525Z,99.90
2019-04-26T09:00:04.949Z,99.90
2019-04-26T09:03:11.279Z,99.90
2019-04-26T09:06:00.243Z,99.90
2019-04-26T09:08:39.231Z,99.90
2019-04-26T09:11:23.713Z,99.90
2019-04-26T09:13:49.960Z,99.90
2019-04-26T09:16:22.189Z,99.90
2019-04-26T09:18:55.073Z,99.90
2019-04-26T09:21:35.231Z,99.90
2019-04-26T09:24:16.800Z,99.90
2019-04-26T09:26:50.409Z,99.90
2019-04-26T09:29:46.242Z,99.90
2019-04-26T09:32:19.233Z,99.90
2019-04-26T09:34:49.405Z,99.90
2019-04-26T09:37:19.428Z,99.90
2019-04-26T09:39:49.395Z,99.90
2019-04-26T09:42:41.331Z,99.90
2019-04-26T09:45:25.521Z,99.90
2019-04-26T09:48:03.559Z,99.90
2019-04-26T09:50:40.588Z,99.90
2019-04-26T09:55:43.434Z,99.90
2019-04-26T09:58:26.914Z,99.90
2019-04-26T10:01:07.945Z,99.90
2019-04-26T10:03:48.885Z,99.90
2019-04-26T10:06:37.657Z,99.90
2019-04-26T10:12:54.716Z,99.90
2019-04-26T10:15:43.704Z,99.90
2019-04-26T10:18:14.028Z,99.90
2019-04-26T10:20:44.040Z,99.90
2019-04-26T10:26:05.562Z,99.90
2019-04-26T10:28:35.420Z,99.90
2019-04-26T10:31:05.220Z,99.90
2019-04-26T10:33:36.527Z,99.90
2019-04-26T10:36:06.711Z,99.90
2019-04-26T10:41:21.024Z,99.90
2019-04-26T10:43:50.812Z,99.90
2019-04-26T10:46:20.497Z,99.90
2019-04-26T10:48:51.326Z,99.90
2019-04-26T10:54:20.478Z,99.90
2019-04-26T10:57:09.069Z,99.90
2019-04-26T10:59:58.162Z,99.90
2019-04-26T11:02:28.193Z,99.90
2019-04-26T11:04:58.321Z,99.90
2019-04-26T11:07:28.214Z,99.90
2019-04-26T11:09:58.075Z,99.90
2019-04-26T11:12:28.091Z,99.90
2019-04-26T11:14:58.242Z,99.90
2019-04-26T11:17:27.923Z,99.90
2019-04-26T11:20:16.803Z,99.90
2019-04-26T11:22:46.844Z,99.90
2019-04-26T11:25:17.185Z,99.90
2019-04-26T11:27:48.658Z,99.90
2019-04-26T11:30:21.191Z,99.90
2019-04-26T11:32:50.881Z,99.90
2019-04-26T11:35:20.776Z,99.90
2019-04-26T11:37:54.683Z,99.90
2019-04-26T11:40:22.004Z,99.90
2019-04-26T11:43:10.823Z,99.90
2019-04-26T11:45:40.639Z,99.90
2019-04-26T11:48:10.327Z,99.90
2019-04-26T11:50:59.118Z,99.90
2019-04-26T11:53:28.822Z,99.90
2019-04-26T11:56:17.589Z,99.90
2019-04-26T11:58:47.941Z,99.90
2019-04-26T12:04:27.551Z,99.90
2019-04-26T12:07:16.087Z,99.90
2019-04-26T12:09:47.598Z,99.90
2019-04-26T12:12:37.792Z,99.90
2019-04-26T12:15:30.326Z,99.90
2019-04-26T12:17:58.950Z,99.90
2019-04-26T12:20:29.829Z,99.90
2019-04-26T12:23:20.882Z,99.90
2019-04-26T12:26:08.983Z,99.90
2019-04-26T12:28:57.701Z,99.90
2019-04-26T12:34:14.071Z,99.90
2019-04-26T12:36:44.272Z,99.90
2019-04-26T12:39:15.668Z,99.90
2019-04-26T12:42:04.433Z,99.90
2019-04-26T12:44:54.879Z,99.90
2019-04-26T12:47:48.689Z,99.90
2019-04-26T12:50:18.858Z,99.90
2019-04-26T12:52:51.501Z,99.90
2019-04-26T12:55:39.367Z,99.90
2019-04-26T12:58:10.991Z,99.90
2019-04-26T13:00:53.316Z,99.90
2019-04-26T13:05:58.188Z,99.90
2019-04-26T13:08:25.750Z,99.90
2019-04-26T13:11:15.185Z,99.90
2019-04-26T13:14:04.773Z,99.90
2019-04-26T13:16:57.177Z,99.90
2019-04-26T13:19:25.332Z,99.90
2019-04-26T13:21:55.351Z,99.90
2019-04-26T13:24:25.148Z,99.90
2019-04-26T13:26:55.060Z,99.90
2019-04-26T13:30:06.766Z,99.90
2019-04-26T13:32:35.631Z,99.90
2019-04-26T13:37:44.755Z,99.90
2019-04-26T13:40:14.751Z,99.90
2019-04-26T13:42:47.480Z,99.90
2019-04-26T13:45:33.280Z,99.90
2019-04-26T13:48:27.986Z,99.90
2019-04-26T13:51:05.629Z,99.90
2019-04-26T13:53:34.974Z,99.90
2019-04-26T13:56:04.840Z,99.90
2019-04-26T13:58:34.868Z,99.90
2019-04-26T14:01:05.119Z,99.90
2019-04-26T14:03:53.896Z,99.60
2019-04-26T14:06:23.902Z,99.90
2019-04-26T14:08:57.391Z,99.30
2019-04-26T14:11:44.229Z,99.90
2019-04-26T14:14:14.075Z,99.70
2019-04-26T14:16:44.235Z,99.20
2019-04-26T14:19:15.547Z,99.30
2019-04-26T14:22:07.035Z,99.20
2019-04-26T14:28:01.997Z,98.10
2019-04-26T14:31:12.314Z,98.20
2019-04-26T14:33:41.253Z,97.10
2019-04-26T14:36:17.436Z,98.00
2019-04-26T14:38:42.915Z,97.00
2019-04-26T14:41:33.029Z,98.50
2019-04-26T14:44:14.726Z,97.00
2019-04-26T14:52:45.008Z,98.80
2019-04-26T14:55:16.478Z,99.00
2019-04-26T14:57:50.860Z,99.20
2019-04-26T15:03:22.584Z,99.20
2019-04-26T15:06:16.758Z,99.90
2019-04-26T15:08:48.665Z,99.30
2019-04-26T15:11:18.123Z,99.80
2019-04-26T15:13:47.799Z,99.90
2019-04-26T15:16:18.000Z,99.00
2019-04-26T15:18:47.736Z,99.30
2019-04-26T15:21:17.478Z,98.40
2019-04-26T15:35:28.373Z,99.90
2019-04-26T15:38:18.260Z,98.40
2019-04-26T15:55:48.511Z,98.20
2019-04-26T15:58:38.653Z,99.90
2019-04-26T16:04:08.374Z,99.10
2019-04-26T16:06:41.963Z,99.00
2019-04-26T16:09:13.843Z,99.10
2019-04-26T16:11:42.829Z,98.70
2019-04-26T16:14:13.739Z,99.40
2019-04-26T16:16:43.941Z,99.20
2019-04-26T16:22:25.750Z,99.90
2019-04-26T16:24:58.303Z,99.90
2019-04-26T16:27:31.156Z,99.90
2019-04-26T16:30:37.438Z,99.90
2019-04-26T16:33:20.008Z,99.90
2019-04-26T16:35:49.944Z,99.90
2019-04-26T16:38:34.137Z,99.90
2019-04-26T16:41:05.128Z,99.90
2019-04-26T16:46:06.787Z,99.90
2019-04-26T16:48:36.545Z,99.90
2019-04-26T16:53:58.808Z,99.90
2019-04-26T16:56:09.887Z,99.90
2019-04-26T16:58:45.001Z,99.90
2019-04-26T17:01:12.416Z,99.90
2019-04-26T17:03:45.185Z,99.90
2019-04-26T17:06:14.608Z,99.90
2019-04-26T17:08:50.083Z,99.90
2019-04-26T17:09:37.223Z,99.90
2019-04-26T17:09:51.156Z,99.90
2019-04-26T17:11:16.486Z,99.90
2019-04-26T17:13:50.674Z,99.90
2019-04-26T17:16:17.633Z,99.90
2019-04-26T17:18:47.784Z,99.90
2019-04-26T17:21:22.320Z,99.90
2019-04-26T17:24:09.840Z,99.90
2019-04-26T17:26:47.225Z,99.90
2019-04-26T17:29:18.465Z,99.90
2019-04-26T17:31:48.274Z,99.90
2019-04-26T17:34:18.024Z,99.90
2019-04-26T17:36:50.445Z,99.90
2019-04-26T17:39:22.353Z,99.90
2019-04-26T17:41:54.102Z,99.90
2019-04-26T17:44:26.435Z,99.90
2019-04-26T17:46:57.070Z,99.90
2019-04-26T17:49:28.851Z,99.90
2019-04-26T17:52:00.337Z,99.90
2019-04-26T17:54:44.161Z,99.90
2019-04-26T17:57:08.236Z,99.90
2019-04-26T17:59:36.824Z,99.90
2019-04-26T18:02:19.500Z,99.90
2019-04-26T18:04:40.754Z,99.90
2019-04-26T18:07:36.403Z,99.90
2019-04-26T18:09:46.542Z,99.80
2019-04-26T18:12:13.608Z,99.90
2019-04-26T18:14:44.283Z,98.10
2019-04-26T18:17:39.109Z,99.90
2019-04-26T18:20:44.544Z,98.10
2019-04-26T18:23:18.522Z,99.40
2019-04-26T18:25:46.834Z,99.90
2019-04-26T18:28:17.278Z,99.90
2019-04-26T18:33:36.623Z,99.90
2019-04-26T18:36:06.856Z,99.90
2019-04-26T18:38:37.040Z,99.90
2019-04-26T18:41:07.059Z,99.90
2019-04-26T18:43:37.639Z,99.90
2019-04-26T18:49:32.856Z,99.90
2019-04-26T18:55:05.503Z,99.90
2019-04-26T18:57:33.917Z,99.90
2019-04-26T19:00:04.723Z,99.90
2019-04-26T19:02:34.999Z,99.90
2019-04-26T19:05:05.161Z,99.90
2019-04-26T19:07:53.861Z,99.90
2019-04-26T19:10:25.710Z,99.90
2019-04-26T19:16:05.122Z,99.90
2019-04-26T19:18:58.770Z,99.90
2019-04-26T19:21:47.523Z,99.90
2019-04-26T19:24:20.926Z,99.90
2019-04-26T19:26:50.346Z,99.90
2019-04-26T19:29:27.030Z,99.90
2019-04-26T19:31:56.543Z,99.90
2019-04-26T19:34:26.050Z,99.90
2019-04-26T19:36:56.320Z,99.90
2019-04-26T19:39:32.423Z,99.90
2019-04-26T19:41:59.202Z,99.90
2019-04-26T19:44:29.473Z,99.90
2019-04-26T19:47:39.551Z,99.90
2019-04-26T19:50:50.182Z,99.90
2019-04-26T19:53:51.738Z,99.90
2019-04-26T19:56:38.335Z,99.90
2019-04-26T19:59:42.250Z,99.90
2019-04-26T20:02:10.723Z,99.90
2019-04-26T20:04:52.411Z,99.90
2019-04-26T20:07:24.153Z,99.90
2019-04-26T20:09:56.262Z,99.90
2019-04-26T20:12:29.508Z,99.90
2019-04-26T20:14:59.756Z,99.90
2019-04-26T20:17:52.412Z,99.90
2019-04-26T20:20:39.232Z,99.90
2019-04-26T20:23:09.484Z,99.90
2019-04-26T20:25:39.315Z,99.90
2019-04-26T20:28:09.072Z,99.90
2019-04-26T20:30:57.909Z,99.90
2019-04-26T20:33:31.143Z,99.90
2019-04-26T20:36:03.331Z,99.90
2019-04-26T20:38:35.875Z,99.90
2019-04-26T20:41:01.974Z,99.90
2019-04-26T20:43:36.275Z,99.90
2019-04-26T20:46:14.034Z,99.90
2019-04-26T20:48:37.042Z,99.90
2019-04-26T20:51:11.028Z,99.90
2019-04-26T20:53:41.313Z,99.90
2019-04-26T20:56:16.257Z,99.90
2019-04-26T20:58:45.445Z,99.90
2019-04-26T21:01:14.252Z,99.90
2019-04-26T21:03:45.875Z,99.90
2019-04-26T21:06:16.074Z,99.90
2019-04-26T21:08:45.895Z,99.90
2019-04-26T21:11:16.111Z,99.90
2019-04-26T21:13:46.025Z,99.90
2019-04-26T21:16:16.339Z,99.90
2019-04-26T21:18:46.487Z,99.90
2019-04-26T21:21:16.575Z,99.90
2019-04-26T21:23:48.452Z,99.90
2019-04-26T21:26:37.992Z,99.90
2019-04-26T21:29:22.001Z,99.90
2019-04-26T21:32:20.338Z,99.90
2019-04-26T21:34:53.507Z,99.90
2019-04-26T21:37:30.296Z,99.90
2019-04-26T21:40:26.273Z,99.90
2019-04-26T21:42:59.594Z,99.90
2019-04-26T21:45:30.931Z,99.90
2019-04-26T21:48:02.629Z,99.90
2019-04-26T21:50:36.061Z,99.90
2019-04-26T21:53:03.474Z,99.90
2019-04-26T21:55:38.408Z,99.90
2019-04-26T21:58:06.201Z,99.90
2019-04-26T22:01:19.073Z,99.90
2019-04-26T22:04:00.167Z,99.90
2019-04-26T22:06:41.878Z,99.90
2019-04-26T22:09:36.691Z,99.90
2019-04-26T22:12:27.265Z,99.90
2019-04-26T22:15:14.553Z,99.90
2019-04-26T22:17:46.710Z,99.90
2019-04-26T22:20:54.570Z,99.90
2019-04-26T22:23:43.711Z,99.90
2019-04-26T22:26:16.511Z,99.90
2019-04-26T22:28:45.205Z,99.90
2019-04-26T22:31:15.113Z,99.90
2019-04-26T22:33:45.102Z,99.90
2019-04-26T22:36:15.101Z,99.90
2019-04-26T22:41:45.647Z,99.90
2019-04-26T22:44:34.676Z,99.90
2019-04-26T22:48:01.241Z,99.90
2019-04-26T22:50:33.422Z,99.90
2019-04-26T22:55:57.804Z,99.90
2019-04-26T22:58:45.597Z,99.90
2019-04-26T23:01:15.714Z,99.90
2019-04-26T23:03:46.695Z,99.90
2019-04-26T23:06:16.923Z,99.90
2019-04-26T23:08:46.837Z,99.90
2019-04-26T23:11:17.032Z,99.90
2019-04-26T23:14:24.616Z,99.90
2019-04-26T23:17:34.870Z,99.90
2019-04-26T23:20:43.045Z,99.90
2019-04-26T23:23:32.344Z,99.90
2019-04-26T23:26:02.263Z,99.90
2019-04-26T23:28:53.498Z,99.90
2019-04-26T23:31:44.574Z,99.90
2019-04-26T23:34:33.711Z,99.90
2019-04-26T23:37:04.322Z,99.90
2019-04-26T23:39:34.632Z,99.90
2019-04-26T23:42:25.096Z,99.90
2019-04-26T23:45:15.242Z,99.90
2019-04-26T23:47:45.026Z,99.90
2019-04-26T23:50:14.772Z,99.90
2019-04-26T23:56:30.271Z,99.90
